createdAt,value
2018-06-16T00:00:19.791Z,14.10
2018-06-16T00:02:53.048Z,14.10
2018-06-16T00:05:24.442Z,14.10
2018-06-16T00:07:55.845Z,14.10
2018-06-16T00:10:27.647Z,14.10
2018-06-16T00:13:11.885Z,14.10
2018-06-16T00:15:43.094Z,14.10
2018-06-16T00:18:14.747Z,14.10
2018-06-16T00:20:47.754Z,14.10
2018-06-16T00:23:18.909Z,14.10
2018-06-16T00:25:50.680Z,14.10
2018-06-16T00:28:22.093Z,14.00
2018-06-16T00:30:53.245Z,13.90
2018-06-16T00:33:28.445Z,14.10
2018-06-16T00:36:00.000Z,14.00
2018-06-16T00:38:31.702Z,13.80
2018-06-16T00:41:04.452Z,13.70
2018-06-16T00:43:35.383Z,13.70
2018-06-16T00:46:06.557Z,13.60
2018-06-16T00:48:38.173Z,13.40
2018-06-16T00:51:11.362Z,13.40
2018-06-16T00:53:42.716Z,13.40
2018-06-16T00:56:13.757Z,13.30
2018-06-16T00:58:44.919Z,13.30
2018-06-16T01:01:15.747Z,13.30
2018-06-16T01:03:47.138Z,13.30
2018-06-16T01:06:18.798Z,13.30
2018-06-16T01:08:49.516Z,13.40
2018-06-16T01:11:20.448Z,13.40
2018-06-16T01:16:23.739Z,13.50
2018-06-16T01:18:54.683Z,13.60
2018-06-16T01:21:26.174Z,13.60
2018-06-16T01:23:57.431Z,13.60
2018-06-16T01:26:29.251Z,13.50
2018-06-16T01:29:00.587Z,13.40
2018-06-16T01:31:33.507Z,13.60
2018-06-16T01:34:04.938Z,13.60
2018-06-16T01:36:49.692Z,13.50
2018-06-16T01:39:21.057Z,13.40
2018-06-16T01:42:02.908Z,13.50
2018-06-16T01:44:34.257Z,13.50
2018-06-16T01:47:12.208Z,13.40
2018-06-16T01:49:44.254Z,13.40
2018-06-16T01:52:16.609Z,13.40
2018-06-16T01:54:47.925Z,13.40
2018-06-16T01:57:19.251Z,13.40
2018-06-16T01:59:55.468Z,13.50
2018-06-16T02:02:26.761Z,13.40
2018-06-16T02:05:07.470Z,13.40
2018-06-16T02:07:38.645Z,13.40
2018-06-16T02:10:09.915Z,13.30
2018-06-16T02:12:41.398Z,13.20
2018-06-16T02:15:13.306Z,13.30
2018-06-16T02:17:45.136Z,13.40
2018-06-16T02:20:16.271Z,13.40
2018-06-16T02:22:56.978Z,13.40
2018-06-16T02:25:28.058Z,13.30
2018-06-16T02:27:59.687Z,13.20
2018-06-16T02:30:30.935Z,13.20
2018-06-16T02:33:02.750Z,13.20
2018-06-16T02:35:34.491Z,13.10
2018-06-16T02:38:06.400Z,13.10
2018-06-16T02:40:37.609Z,13.20
2018-06-16T02:43:09.145Z,13.20
2018-06-16T02:45:41.002Z,13.10
2018-06-16T02:48:12.541Z,13.10
2018-06-16T02:50:44.312Z,13.10
2018-06-16T02:53:16.190Z,13.20
2018-06-16T02:55:48.015Z,13.20
2018-06-16T02:58:20.829Z,13.30
2018-06-16T03:00:52.373Z,13.40
2018-06-16T03:03:23.696Z,13.30
2018-06-16T03:05:55.140Z,13.40
2018-06-16T03:08:28.167Z,13.50
2018-06-16T03:10:59.555Z,13.50
2018-06-16T03:13:37.899Z,13.60
2018-06-16T03:16:08.846Z,13.40
2018-06-16T03:18:39.989Z,13.30
2018-06-16T03:21:10.735Z,13.20
2018-06-16T03:23:41.479Z,13.10
2018-06-16T03:26:13.626Z,13.00
2018-06-16T03:28:45.388Z,13.00
2018-06-16T03:31:16.114Z,13.00
2018-06-16T03:33:46.956Z,13.10
2018-06-16T03:36:17.541Z,13.20
2018-06-16T03:38:48.623Z,13.20
2018-06-16T03:41:19.537Z,13.30
2018-06-16T03:43:51.009Z,13.30
2018-06-16T03:46:23.006Z,13.30
2018-06-16T03:48:52.853Z,13.40
2018-06-16T03:51:24.926Z,13.60
2018-06-16T03:53:55.515Z,13.70
2018-06-16T03:56:28.682Z,13.70
2018-06-16T03:58:58.883Z,13.70
2018-06-16T04:01:34.290Z,13.90
2018-06-16T04:04:04.782Z,14.00
2018-06-16T04:06:35.177Z,14.10
2018-06-16T04:09:09.443Z,14.10
2018-06-16T04:11:39.609Z,14.30
2018-06-16T04:14:10.052Z,14.40
2018-06-16T04:16:40.072Z,14.60
2018-06-16T04:19:10.548Z,14.60
2018-06-16T04:21:40.881Z,14.70
2018-06-16T04:24:11.179Z,14.70
2018-06-16T04:26:41.105Z,14.80
2018-06-16T04:29:10.972Z,15.00
2018-06-16T04:31:40.620Z,15.10
2018-06-16T04:34:10.485Z,15.30
2018-06-16T04:36:40.515Z,15.50
2018-06-16T04:39:11.067Z,15.60
2018-06-16T04:41:40.868Z,15.70
2018-06-16T04:44:15.330Z,15.80
2018-06-16T04:46:45.718Z,15.90
2018-06-16T04:49:21.945Z,16.10
2018-06-16T04:51:52.765Z,16.20
2018-06-16T04:54:23.725Z,16.30
2018-06-16T04:56:53.973Z,16.40
2018-06-16T04:59:24.855Z,16.50
2018-06-16T05:01:54.962Z,16.60
2018-06-16T05:04:25.033Z,16.70
2018-06-16T05:07:00.429Z,16.90
2018-06-16T05:09:30.809Z,17.00
2018-06-16T05:12:00.783Z,17.10
2018-06-16T05:14:31.325Z,17.20
2018-06-16T05:17:01.265Z,17.30
2018-06-16T05:19:32.328Z,17.40
2018-06-16T05:22:02.354Z,17.40
2018-06-16T05:24:32.171Z,17.60
2018-06-16T05:27:04.418Z,17.60
2018-06-16T05:29:34.536Z,17.70
2018-06-16T05:32:04.526Z,17.80
2018-06-16T05:34:35.624Z,17.80
2018-06-16T05:37:13.339Z,17.80
2018-06-16T05:39:43.883Z,17.90
2018-06-16T05:42:14.198Z,17.90
2018-06-16T05:44:44.384Z,17.90
2018-06-16T05:47:14.780Z,17.90
2018-06-16T05:49:44.900Z,18.00
2018-06-16T05:52:15.437Z,18.00
2018-06-16T05:54:46.304Z,18.10
2018-06-16T05:57:17.703Z,18.20
2018-06-16T06:00:16.599Z,18.30
2018-06-16T06:02:47.324Z,18.40
2018-06-16T06:05:19.468Z,18.60
2018-06-16T06:07:50.820Z,18.70
2018-06-16T06:10:21.369Z,18.80
2018-06-16T06:12:52.462Z,18.80
2018-06-16T06:15:26.174Z,18.80
2018-06-16T06:17:57.241Z,18.80
2018-06-16T06:20:28.261Z,18.80
2018-06-16T06:22:59.281Z,18.80
2018-06-16T06:25:31.069Z,18.80
2018-06-16T06:28:02.559Z,18.90
2018-06-16T06:30:33.725Z,19.10
2018-06-16T06:33:04.682Z,19.30
2018-06-16T06:35:36.516Z,19.40
2018-06-16T06:38:15.371Z,19.50
2018-06-16T06:40:47.616Z,19.60
2018-06-16T06:43:18.280Z,19.70
2018-06-16T06:45:50.306Z,19.90
2018-06-16T06:48:22.124Z,20.00
2018-06-16T06:50:53.868Z,20.10
2018-06-16T06:53:26.672Z,20.20
2018-06-16T06:55:58.899Z,20.30
2018-06-16T06:58:30.595Z,20.30
2018-06-16T07:01:02.901Z,20.30
2018-06-16T07:03:34.678Z,20.40
2018-06-16T07:06:06.533Z,20.50
2018-06-16T07:08:38.666Z,20.50
2018-06-16T07:11:10.653Z,20.50
2018-06-16T07:13:42.559Z,20.60
2018-06-16T07:16:15.688Z,20.80
2018-06-16T07:18:47.270Z,20.90
2018-06-16T07:21:19.463Z,21.10
2018-06-16T07:23:51.391Z,21.40
2018-06-16T07:26:23.377Z,21.60
2018-06-16T07:28:56.073Z,21.70
2018-06-16T07:31:29.160Z,21.80
2018-06-16T07:34:00.657Z,21.90
2018-06-16T07:36:32.555Z,22.10
2018-06-16T07:39:04.707Z,22.10
2018-06-16T07:41:36.780Z,22.10
2018-06-16T07:44:09.387Z,22.20
2018-06-16T07:46:42.660Z,22.30
2018-06-16T07:49:14.865Z,22.10
2018-06-16T07:51:46.382Z,22.00
2018-06-16T07:54:18.065Z,22.00
2018-06-16T07:56:49.895Z,22.10
2018-06-16T07:59:21.785Z,22.20
2018-06-16T08:01:53.659Z,22.40
2018-06-16T08:04:26.089Z,22.50
2018-06-16T08:06:59.160Z,22.80
2018-06-16T08:09:30.271Z,22.90
2018-06-16T08:14:37.826Z,22.80
2018-06-16T08:17:09.412Z,22.70
2018-06-16T08:19:44.838Z,22.60
2018-06-16T08:22:22.282Z,22.70
2018-06-16T08:24:53.596Z,22.80
2018-06-16T08:27:25.169Z,22.80
2018-06-16T08:29:56.372Z,22.80
2018-06-16T08:32:28.380Z,23.00
2018-06-16T08:35:00.234Z,23.00
2018-06-16T08:37:31.975Z,22.90
2018-06-16T08:40:03.751Z,22.80
2018-06-16T08:42:35.533Z,22.90
2018-06-16T08:45:07.062Z,23.20
2018-06-16T08:47:40.576Z,23.30
2018-06-16T08:50:12.341Z,23.40
2018-06-16T08:52:44.611Z,23.40
2018-06-16T08:55:17.073Z,23.50
2018-06-16T08:57:49.676Z,23.70
2018-06-16T09:00:21.784Z,24.00
2018-06-16T09:02:53.576Z,24.70
2018-06-16T09:05:25.006Z,25.20
2018-06-16T09:07:56.243Z,25.60
2018-06-16T09:10:27.951Z,25.50
2018-06-16T09:13:04.541Z,25.40
2018-06-16T09:15:43.280Z,25.50
2018-06-16T09:18:15.074Z,25.40
2018-06-16T09:20:48.275Z,25.70
2018-06-16T09:23:21.092Z,25.60
2018-06-16T09:25:55.311Z,25.70
2018-06-16T09:28:31.344Z,26.00
2018-06-16T09:31:01.111Z,26.10
2018-06-16T09:33:32.595Z,26.00
2018-06-16T09:36:05.460Z,26.10
2018-06-16T09:38:37.767Z,26.30
2018-06-16T09:41:09.348Z,26.60
2018-06-16T09:43:47.515Z,27.10
2018-06-16T09:46:19.703Z,27.50
2018-06-16T09:48:52.577Z,27.80
2018-06-16T09:51:25.045Z,28.00
2018-06-16T09:53:56.171Z,28.40
2018-06-16T09:56:27.476Z,28.50
2018-06-16T09:58:59.496Z,28.10
2018-06-16T10:04:01.729Z,28.10
2018-06-16T10:06:33.513Z,27.90
2018-06-16T10:09:06.904Z,28.10
2018-06-16T10:11:37.262Z,28.70
2018-06-16T10:14:10.289Z,29.40
2018-06-16T10:16:42.071Z,29.30
2018-06-16T10:19:13.595Z,29.00
2018-06-16T10:21:46.521Z,29.10
2018-06-16T10:26:56.743Z,28.70
2018-06-16T10:29:32.982Z,28.40
2018-06-16T10:32:03.963Z,29.20
2018-06-16T10:34:37.005Z,29.80
2018-06-16T10:37:08.709Z,30.00
2018-06-16T10:39:38.496Z,30.80
2018-06-16T10:42:13.672Z,31.30
2018-06-16T10:44:45.270Z,31.40
2018-06-16T10:47:19.091Z,31.70
2018-06-16T10:49:52.378Z,31.30
2018-06-16T10:52:26.227Z,30.50
2018-06-16T10:55:30.646Z,29.90
2018-06-16T10:58:02.724Z,29.40
2018-06-16T11:00:35.542Z,29.60
2018-06-16T11:03:07.127Z,29.60
2018-06-16T11:05:41.050Z,29.60
2018-06-16T11:08:12.578Z,28.90
2018-06-16T11:10:43.577Z,28.20
2018-06-16T11:13:15.419Z,27.70
2018-06-16T11:15:47.384Z,27.30
2018-06-16T11:18:18.405Z,27.10
2018-06-16T11:20:49.787Z,27.30
2018-06-16T11:23:19.398Z,27.20
2018-06-16T11:25:52.582Z,27.10
2018-06-16T11:28:22.142Z,27.40
2018-06-16T11:30:52.147Z,28.00
2018-06-16T11:33:23.454Z,27.80
2018-06-16T11:35:58.619Z,27.10
2018-06-16T11:38:28.962Z,26.50
2018-06-16T11:40:59.853Z,26.20
2018-06-16T11:43:33.387Z,25.90
2018-06-16T11:46:05.087Z,25.70
2018-06-16T11:48:34.745Z,25.40
2018-06-16T11:51:05.029Z,25.10
2018-06-16T11:53:43.772Z,25.40
2018-06-16T11:56:15.641Z,26.30
2018-06-16T11:58:45.277Z,27.60
2018-06-16T12:01:15.469Z,27.00
2018-06-16T12:03:45.126Z,26.10
2018-06-16T12:06:16.205Z,25.70
2018-06-16T12:08:47.555Z,25.00
2018-06-16T12:11:18.837Z,24.50
2018-06-16T12:13:48.448Z,24.20
2018-06-16T12:16:18.114Z,24.20
2018-06-16T12:18:47.654Z,24.00
2018-06-16T12:21:17.510Z,23.90
2018-06-16T12:23:48.730Z,24.00
2018-06-16T12:26:19.120Z,24.00
2018-06-16T12:28:48.762Z,24.10
2018-06-16T12:31:25.344Z,24.20
2018-06-16T12:33:55.804Z,24.30
2018-06-16T12:36:25.514Z,24.60
2018-06-16T12:38:56.703Z,25.10
2018-06-16T12:41:26.275Z,25.70
2018-06-16T12:43:59.985Z,27.70
2018-06-16T12:46:29.561Z,29.50
2018-06-16T12:49:01.525Z,30.90
2018-06-16T12:51:31.486Z,32.40
2018-06-16T12:54:01.371Z,33.30
2018-06-16T12:56:33.700Z,32.30
2018-06-16T12:59:03.517Z,31.50
2018-06-16T13:01:33.272Z,31.20
2018-06-16T13:04:02.746Z,30.80
2018-06-16T13:09:02.180Z,30.50
2018-06-16T13:11:31.446Z,30.80
2018-06-16T13:14:01.190Z,31.20
2018-06-16T13:16:30.668Z,32.00
2018-06-16T13:19:01.526Z,33.60
2018-06-16T13:21:33.189Z,35.50
2018-06-16T13:24:03.276Z,35.60
2018-06-16T13:26:32.833Z,35.10
2018-06-16T13:29:03.315Z,34.90
2018-06-16T13:31:33.087Z,33.90
2018-06-16T13:34:02.510Z,33.40
2018-06-16T13:36:32.997Z,33.40
2018-06-16T13:39:09.942Z,33.80
2018-06-16T13:41:40.362Z,34.70
2018-06-16T13:44:09.991Z,35.30
2018-06-16T13:49:13.830Z,34.70
2018-06-16T13:51:43.372Z,34.10
2018-06-16T13:54:12.958Z,34.30
2018-06-16T13:56:42.308Z,34.20
2018-06-16T13:59:21.611Z,33.40
2018-06-16T14:01:51.383Z,32.90
2018-06-16T14:04:21.432Z,32.40
2018-06-16T14:06:50.994Z,32.50
2018-06-16T14:09:21.766Z,33.60
2018-06-16T14:11:51.342Z,34.80
2018-06-16T14:14:21.123Z,35.30
2018-06-16T14:16:54.340Z,35.90
2018-06-16T14:19:26.009Z,37.10
2018-06-16T14:21:57.924Z,37.10
2018-06-16T14:24:29.884Z,36.80
2018-06-16T14:27:02.889Z,36.30
2018-06-16T14:29:35.076Z,36.20
2018-06-16T14:32:07.358Z,36.40
2018-06-16T14:34:37.365Z,36.50
2018-06-16T14:39:39.612Z,36.50
2018-06-16T14:42:11.279Z,35.20
2018-06-16T14:44:43.298Z,34.10
2018-06-16T14:47:15.234Z,33.70
2018-06-16T14:49:46.728Z,33.90
2018-06-16T14:52:18.323Z,33.30
2018-06-16T14:54:49.917Z,32.90
2018-06-16T14:57:21.988Z,31.80
2018-06-16T14:59:54.641Z,31.10
2018-06-16T15:02:26.543Z,30.80
2018-06-16T15:04:58.215Z,30.40
2018-06-16T15:07:30.657Z,30.20
2018-06-16T15:10:01.993Z,30.00
2018-06-16T15:12:53.504Z,30.00
2018-06-16T15:15:25.377Z,30.00
2018-06-16T15:17:59.266Z,29.40
2018-06-16T15:20:29.911Z,29.20
2018-06-16T15:23:04.158Z,29.20
2018-06-16T15:25:37.068Z,29.20
2018-06-16T15:28:07.961Z,29.00
2018-06-16T15:30:40.099Z,28.80
2018-06-16T15:33:10.572Z,28.30
2018-06-16T15:35:42.629Z,28.10
2018-06-16T15:38:13.627Z,27.90
2018-06-16T15:40:47.312Z,28.20
2018-06-16T15:43:18.281Z,28.60
2018-06-16T15:45:49.837Z,28.60
2018-06-16T15:48:34.565Z,28.40
2018-06-16T15:51:06.986Z,28.30
2018-06-16T15:53:36.650Z,27.90
2018-06-16T15:56:12.524Z,27.40
2018-06-16T15:58:43.382Z,27.10
2018-06-16T16:01:17.525Z,26.90
2018-06-16T16:23:40.445Z,23.30
2018-06-16T16:26:13.238Z,21.70
2018-06-16T16:33:37.347Z,19.70
2018-06-16T16:36:08.718Z,19.50
2018-06-16T16:38:40.357Z,19.30
2018-06-16T16:41:11.584Z,19.20
2018-06-16T16:43:42.036Z,19.10
2018-06-16T16:46:19.941Z,18.90
2018-06-16T16:48:51.038Z,18.80
2018-06-16T16:51:22.367Z,18.70
2018-06-16T16:56:23.409Z,18.70
2018-06-16T16:58:55.053Z,18.80
2018-06-16T17:01:26.094Z,18.80
2018-06-16T17:03:57.405Z,18.80
2018-06-16T17:06:29.460Z,18.90
2018-06-16T17:09:00.682Z,19.00
2018-06-16T17:11:32.945Z,19.10
2018-06-16T17:14:04.483Z,19.20
2018-06-16T17:16:44.965Z,19.20
2018-06-16T17:19:21.546Z,19.40
2018-06-16T17:21:56.825Z,19.40
2018-06-16T17:24:49.929Z,19.50
2018-06-16T17:27:26.817Z,19.50
2018-06-16T17:29:57.907Z,19.50
2018-06-16T17:32:29.095Z,19.60
2018-06-16T17:35:06.339Z,19.80
2018-06-16T17:37:46.700Z,20.00
2018-06-16T17:40:22.579Z,20.00
2018-06-16T17:42:56.028Z,20.10
2018-06-16T17:45:29.747Z,20.30
2018-06-16T17:48:01.780Z,20.30
2018-06-16T17:50:33.867Z,20.20
2018-06-16T17:53:06.090Z,20.10
2018-06-16T17:55:47.768Z,20.10
2018-06-16T17:58:24.297Z,19.90
2018-06-16T18:01:00.282Z,19.80
2018-06-16T18:03:35.726Z,19.70
2018-06-16T18:06:11.482Z,19.60
2018-06-16T18:08:42.968Z,19.50
2018-06-16T18:11:20.929Z,19.60
2018-06-16T18:13:57.552Z,19.60
2018-06-16T18:16:28.585Z,19.60
2018-06-16T18:19:01.670Z,19.60
2018-06-16T18:21:31.913Z,19.70
2018-06-16T18:24:06.428Z,19.60
2018-06-16T18:26:37.629Z,19.50
2018-06-16T18:29:13.253Z,19.40
2018-06-16T18:31:53.783Z,19.40
2018-06-16T18:34:28.033Z,19.50
2018-06-16T18:36:59.408Z,19.40
2018-06-16T18:39:29.840Z,19.50
2018-06-16T18:42:04.823Z,19.60
2018-06-16T18:44:41.022Z,19.60
2018-06-16T18:47:16.837Z,19.60
2018-06-16T18:49:48.504Z,19.70
2018-06-16T18:52:26.906Z,19.70
2018-06-16T18:55:05.499Z,19.70
2018-06-16T18:57:48.448Z,19.60
2018-06-16T19:00:23.031Z,19.50
2018-06-16T19:02:57.125Z,19.40
2018-06-16T19:05:39.629Z,19.30
2018-06-16T19:11:04.994Z,19.00
2018-06-16T19:13:38.881Z,18.80
2018-06-16T19:16:12.506Z,18.70
2018-06-16T19:18:52.794Z,18.60
2018-06-16T19:21:25.691Z,18.50
2018-06-16T19:23:59.633Z,18.20
2018-06-16T19:26:35.728Z,18.20
2018-06-16T19:29:09.870Z,18.20
2018-06-16T19:31:44.668Z,18.10
2018-06-16T19:34:17.754Z,18.00
2018-06-16T19:36:50.796Z,17.80
2018-06-16T19:39:23.490Z,17.90
2018-06-16T19:41:56.792Z,17.70
2018-06-16T19:44:33.595Z,17.60
2018-06-16T19:49:39.313Z,17.40
2018-06-16T19:52:12.023Z,17.20
2018-06-16T19:54:44.687Z,17.20
2018-06-16T19:57:17.406Z,17.10
2018-06-16T19:59:50.165Z,17.10
2018-06-16T20:02:24.969Z,17.00
2018-06-16T20:04:57.822Z,16.90
2018-06-16T20:07:37.527Z,16.80
2018-06-16T20:10:51.220Z,16.80
2018-06-16T20:13:24.118Z,16.80
2018-06-16T20:15:56.489Z,17.00
2018-06-16T20:18:28.481Z,17.00
2018-06-16T20:21:01.784Z,17.00
2018-06-16T20:23:34.676Z,17.10
2018-06-16T20:26:07.223Z,17.30
2018-06-16T20:28:40.581Z,17.30
2018-06-16T20:31:12.563Z,17.30
2018-06-16T20:33:46.122Z,17.40
2018-06-16T20:36:20.766Z,17.40
2018-06-16T20:38:54.518Z,17.30
2018-06-16T20:41:27.278Z,17.30
2018-06-16T20:45:07.665Z,17.40
2018-06-16T20:47:40.705Z,17.40
2018-06-16T20:50:20.666Z,17.40
2018-06-16T20:52:56.186Z,17.40
2018-06-16T20:55:39.188Z,17.30
2018-06-16T20:58:12.358Z,17.30
2018-06-16T21:00:45.477Z,17.30
2018-06-16T21:03:24.366Z,17.30
2018-06-16T21:05:56.378Z,17.40
2018-06-16T21:08:29.664Z,17.40
2018-06-16T21:11:02.549Z,17.40
2018-06-16T21:13:41.084Z,17.50
2018-06-16T21:16:13.708Z,17.50
2018-06-16T21:18:47.523Z,17.50
2018-06-16T21:21:20.298Z,17.50
2018-06-16T21:23:55.512Z,17.50
2018-06-16T21:26:27.770Z,17.50
2018-06-16T21:28:59.722Z,17.50
2018-06-16T21:31:31.962Z,17.40
2018-06-16T21:34:06.016Z,17.30
2018-06-16T21:36:39.097Z,17.30
2018-06-16T21:39:12.223Z,17.10
2018-06-16T21:41:45.059Z,17.00
2018-06-16T21:44:17.947Z,16.60
2018-06-16T21:46:50.523Z,16.40
2018-06-16T21:49:23.087Z,16.20
2018-06-16T21:51:57.802Z,16.00
2018-06-16T21:54:33.531Z,15.90
2018-06-16T21:57:05.739Z,15.80
2018-06-16T21:59:38.199Z,16.00
2018-06-16T22:02:10.374Z,16.00
2018-06-16T22:04:47.711Z,15.80
2018-06-16T22:07:18.708Z,15.80
2018-06-16T22:09:55.412Z,15.70
2018-06-16T22:12:33.106Z,15.60
2018-06-16T22:15:13.735Z,15.40
2018-06-16T22:17:47.336Z,15.40
2018-06-16T22:20:19.023Z,15.50
2018-06-16T22:22:50.336Z,15.50
2018-06-16T22:25:28.172Z,15.60
2018-06-16T22:28:01.018Z,15.60
2018-06-16T22:30:33.540Z,15.60
2018-06-16T22:35:52.108Z,15.80
2018-06-16T22:38:27.503Z,15.80
2018-06-16T22:41:06.260Z,15.60
2018-06-16T22:43:37.786Z,15.60
2018-06-16T22:46:09.933Z,15.50
2018-06-16T22:48:42.501Z,15.50
2018-06-16T22:51:15.632Z,15.60
2018-06-16T22:53:49.542Z,15.70
2018-06-16T22:56:24.225Z,15.50
2018-06-16T22:59:01.301Z,15.50
2018-06-16T23:01:33.271Z,15.40
2018-06-16T23:04:13.030Z,15.30
2018-06-16T23:06:50.797Z,15.40
2018-06-16T23:09:28.206Z,15.30
2018-06-16T23:11:59.981Z,15.20
2018-06-16T23:14:31.386Z,15.00
2018-06-16T23:17:04.956Z,14.90
2018-06-16T23:19:37.384Z,14.90
2018-06-16T23:22:09.399Z,14.90
2018-06-16T23:24:40.769Z,14.80
2018-06-16T23:27:12.512Z,15.10
2018-06-16T23:29:44.384Z,15.30
2018-06-16T23:32:15.820Z,15.50
2018-06-16T23:34:47.289Z,15.60
2018-06-16T23:37:19.833Z,15.60
2018-06-16T23:39:51.333Z,15.60
2018-06-16T23:42:21.733Z,15.50
2018-06-16T23:44:52.205Z,15.60
2018-06-16T23:47:22.922Z,15.70
2018-06-16T23:49:54.934Z,15.70
2018-06-16T23:52:26.949Z,15.70
2018-06-16T23:54:59.047Z,15.70
2018-06-16T23:57:29.619Z,15.60
